Latest Weather Observations for Combienbar

IDV60801

Issued at 7:02 pm EST Tuesday 22 August 2017 (issued every 30 minutes, with the page automatically refreshed every 10 minutes)

About weather observations | Map of weather stations | Latest weather observations for VIC | Other Formats
Station Details ID: 084143 Name: COMBIENBAR AWS Lat: -37.34 Lon: 149.02 Height: 640.0 m
Data from the previous 72 hours. | See also: Recent months at Combienbar
Date/Time
EST
Temp
°C
App
Temp
°C
Dew
Point
°C
Rel
Hum
%
Delta-T
°C
Wind Press
QNH
hPa
Press
MSL
hPa
Rain since
9am
mm
Dir  Spd
km/h
Gust
km/h
Spd
kts
Gust
kts
22/07:00pm 7.9 6.4 3.2 72 2.1 CALM 0 0 0 0 1019.2 1019.5 -
22/06:30pm 8.3 6.9 3.6 72 2.1 CALM 0 0 0 0 1019.0 1019.3 -
22/06:00pm 8.4 6.9 3.1 69 2.3 CALM 0 2 0 1 1019.0 1019.3 -
22/05:30pm 9.6 8.0 2.7 62 3.1 CALM 0 0 0 0 1018.7 1019.0 -
22/05:00pm 10.5 8.9 2.6 58 3.5 CALM 0 0 0 0 1018.4 1018.6 -
22/04:30pm 11.2 9.5 2.0 53 4.1 CALM 0 0 0 0 1018.2 1018.4 -
22/04:00pm 12.7 11.1 2.6 50 4.6 CALM 0 0 0 0 1017.7 1018.0 -
22/03:30pm 13.8 12.2 2.7 47 5.1 CALM 0 0 0 0 1017.6 1017.9 -
22/03:00pm 13.9 12.3 2.5 46 5.2 CALM 0 0 0 0 1017.5 1017.8 -
22/02:30pm 14.3 12.7 2.5 45 5.4 CALM 0 0 0 0 1017.6 1017.9 -
22/02:00pm 14.0 12.5 2.9 47 5.1 CALM 0 0 0 0 1017.5 1017.8 -
22/01:30pm 13.0 11.3 2.0 47 4.9 CALM 0 4 0 2 1017.7 1018.0 -
22/01:00pm 12.4 10.4 2.3 50 4.5 SSW 2 6 1 3 1018.0 1018.2 -
22/12:30pm 12.5 10.4 1.8 48 4.8 SSW 2 4 1 2 1018.2 1018.4 -
22/12:00pm 12.4 10.5 2.8 52 4.4 SSW 2 6 1 3 1018.4 1018.6 -
22/11:30am 11.9 10.0 2.6 53 4.2 SE 2 6 1 3 1018.8 1019.1 -
22/11:00am 10.5 8.8 2.1 56 3.7 CALM 0 0 0 0 1019.2 1019.5 -
22/10:30am 9.4 7.6 1.3 57 3.5 CALM 0 0 0 0 1019.3 1019.6 -
22/10:00am 9.4 7.5 0.3 53 3.8 CALM 0 2 0 1 1019.1 1019.4 -
22/09:30am 9.8 8.0 0.9 54 3.8 CALM 0 0 0 0 1019.0 1019.3 -
22/09:00am 9.3 7.3 0.0 52 3.9 CALM 0 2 0 1 1018.8 1019.1 -
22/08:30am 8.4 6.3 -0.6 53 3.7 CALM 0 0 0 0 1018.6 1018.9 -
22/08:00am 7.4 5.3 -0.8 56 3.3 CALM 0 0 0 0 1018.6 1018.9 -
22/07:30am 6.7 4.6 -1.0 58 3.0 CALM 0 2 0 1 1018.4 1018.6 -
22/07:00am 6.2 4.1 -1.0 60 2.8 CALM 0 2 0 1 1018.0 1018.2 -
22/06:30am 6.4 4.3 -1.0 59 2.9 CALM 0 2 0 1 1017.6 1017.9 -
22/06:00am 6.4 4.3 -1.0 59 2.9 CALM 0 2 0 1 1017.3 1017.6 -
22/05:30am 6.5 4.3 -1.2 58 3.0 CALM 0 0 0 0 1017.1 1017.3 -
22/05:00am 6.6 4.5 -1.1 58 3.0 CALM 0 0 0 0 1016.9 1017.1 -
22/04:30am 6.7 4.6 -1.0 58 3.0 CALM 0 0 0 0 1016.5 1016.7 -
22/04:00am 6.5 4.4 -0.9 59 2.9 CALM 0 2 0 1 1016.3 1016.5 -
22/03:30am 6.0 3.9 -0.7 62 2.6 CALM 0 4 0 2 1016.2 1016.4 -
22/03:00am 6.0 3.5 -0.7 62 2.6 WSW 2 7 1 4 1016.2 1016.4 -
22/02:30am 6.1 4.0 -0.6 62 2.7 CALM 0 4 0 2 1016.2 1016.4 -
22/02:00am 6.0 3.5 -0.7 62 2.6 WSW 2 6 1 3 1016.4 1016.6 -
22/01:30am 6.6 4.1 -0.8 59 2.9 NW 2 7 1 4 1016.6 1016.8 -
22/01:00am 6.6 4.1 -0.8 59 2.9 NW 2 6 1 3 1016.7 1016.9 -
22/12:30am 6.6 3.8 -0.4 61 2.8 NW 4 7 2 4 1016.8 1017.0 -
22/12:00am 6.1 3.7 0.0 65 2.4 WSW 2 6 1 3 1017.0 1017.2 -
 
Date/Time
EST
Temp
°C
App
Temp
°C
Dew
Point
°C
Rel
Hum
%
Delta-T
°C
Wind Press
QNH
hPa
Press
MSL
hPa
Rain since
9am
mm
Dir  Spd
km/h
Gust
km/h
Spd
kts
Gust
kts
21/11:30pm 6.2 3.9 0.1 65 2.5 WSW 2 9 1 5 1017.1 1017.3 -
21/11:00pm 6.3 4.0 0.2 65 2.5 WSW 2 11 1 6 1017.1 1017.3 -
21/10:30pm 6.3 3.6 0.0 64 2.5 WNW 4 13 2 7 1017.1 1017.3 -
21/10:00pm 6.0 3.7 0.1 66 2.4 W 2 13 1 7 1017.0 1017.2 -
21/09:30pm 6.0 3.6 -0.3 64 2.5 W 2 13 1 7 1017.1 1017.3 -
21/09:00pm 6.0 3.5 -0.7 62 2.6 WSW 2 9 1 5 1016.8 1017.0 -
21/08:30pm 6.4 3.9 -1.2 58 3.0 WSW 2 9 1 5 1016.5 1016.7 -
21/08:00pm 5.9 3.9 -0.4 64 2.5 CALM 0 7 0 4 1016.2 1016.4 -
21/07:30pm 5.6 3.6 0.2 68 2.2 CALM 0 2 0 1 1016.0 1016.3 -
21/07:00pm 5.4 3.4 0.2 69 2.1 CALM 0 0 0 0 1015.8 1016.0 -
21/06:30pm 5.5 3.6 0.5 70 2.0 CALM 0 0 0 0 1015.6 1015.8 -
21/06:00pm 5.7 3.4 0.7 70 2.0 NNE 2 6 1 3 1015.4 1015.6 -
21/05:30pm 6.1 4.3 0.9 69 2.1 CALM 0 4 0 2 1015.3 1015.5 -
21/05:00pm 6.5 4.7 1.2 69 2.2 CALM 0 0 0 0 1015.2 1015.4 -
21/04:30pm 6.7 4.5 1.2 68 2.3 NNE 2 4 1 2 1015.1 1015.3 -
21/04:00pm 7.3 5.5 1.2 65 2.6 CALM 0 4 0 2 1015.0 1015.2 -
21/03:30pm 7.2 4.9 0.6 63 2.7 NNE 2 6 1 3 1015.0 1015.2 -
21/03:00pm 7.5 5.6 0.7 62 2.8 CALM 0 2 0 1 1014.9 1015.1 -
21/02:30pm 7.6 5.6 0.1 59 3.1 CALM 0 0 0 0 1015.0 1015.2 -
21/02:00pm 7.9 6.1 1.1 62 2.9 CALM 0 0 0 0 1015.1 1015.3 -
21/01:30pm 7.5 5.1 0.0 59 3.1 N 2 7 1 4 1015.6 1015.8 -
21/01:00pm 7.4 5.2 1.0 64 2.7 NNE 2 6 1 3 1016.0 1016.3 -
21/12:30pm 7.1 4.0 0.3 62 2.8 N 6 13 3 7 1016.7 1016.9 -
21/12:00pm 9.0 6.1 -1.4 48 4.2 NW 4 9 2 5 1016.8 1017.0 -
21/11:30am 8.7 5.7 -2.0 47 4.2 NW 4 9 2 5 1016.9 1017.1 -
21/11:00am 8.7 5.1 -3.8 41 4.7 WNW 6 15 3 8 1017.2 1017.5 -
21/10:30am 8.6 4.2 -6.0 35 5.2 WNW 9 20 5 11 1017.4 1017.7 -
21/10:00am 9.2 6.2 -5.1 36 5.3 NNE 2 4 1 2 1017.0 1017.2 -
21/09:30am 9.5 7.1 -3.1 41 4.9 CALM 0 2 0 1 1016.8 1017.0 -
21/09:00am 6.9 4.5 -3.3 48 3.8 CALM 0 0 0 0 1016.9 1017.1 -
21/08:30am 5.9 3.6 -2.7 54 3.2 CALM 0 0 0 0 1016.9 1017.1 -
21/08:00am 6.0 3.2 -6.9 39 4.4 CALM 0 0 0 0 1016.9 1017.1 -
21/07:30am 5.9 3.0 -8.4 35 4.6 CALM 0 0 0 0 1016.8 1017.0 -
21/07:00am 6.0 3.4 -5.3 44 4.0 CALM 0 0 0 0 1016.4 1016.6 -
21/06:30am 5.6 2.8 -3.0 54 3.2 NNW 2 13 1 7 1016.4 1016.6 -
21/06:00am 4.9 2.1 -0.7 67 2.2 NE 4 6 2 3 1016.5 1016.7 -
21/05:30am 4.1 2.2 0.3 76 1.5 CALM 0 4 0 2 1016.3 1016.5 -
21/05:00am 3.9 1.6 0.6 79 1.3 NNE 2 4 1 2 1016.3 1016.5 -
21/04:30am 4.1 1.8 0.4 77 1.5 NNE 2 6 1 3 1016.3 1016.5 -
21/04:00am 4.4 2.5 0.4 75 1.6 CALM 0 0 0 0 1016.5 1016.7 -
21/03:30am 5.4 3.0 0.0 68 2.2 NW 2 11 1 6 1016.8 1017.0 -
21/03:00am 4.8 2.9 0.6 74 1.7 CALM 0 0 0 0 1017.2 1017.5 -
21/02:30am 4.4 2.6 1.1 79 1.3 CALM 0 0 0 0 1017.4 1017.7 -
21/02:00am 4.3 2.5 1.2 80 1.3 CALM 0 0 0 0 1017.5 1017.8 -
21/01:30am 4.1 2.3 1.3 82 1.1 CALM 0 0 0 0 1017.7 1018.0 -
21/01:00am 4.0 2.2 1.4 83 1.1 CALM 0 0 0 0 1018.0 1018.2 -
21/12:30am 3.6 1.8 1.2 84 1.0 CALM 0 0 0 0 1018.2 1018.4 -
21/12:00am 3.8 2.0 1.2 83 1.0 CALM 0 0 0 0 1018.6 1018.9 -
 
Date/Time
EST
Temp
°C
App
Temp
°C
Dew
Point
°C
Rel
Hum
%
Delta-T
°C
Wind Press
QNH
hPa
Press
MSL
hPa
Rain since
9am
mm
Dir  Spd
km/h
Gust
km/h
Spd
kts
Gust
kts
20/11:30pm 3.9 2.1 1.3 83 1.1 CALM 0 4 0 2 1019.0 1019.3 -
20/11:00pm 3.4 1.6 1.1 85 0.9 CALM 0 0 0 0 1019.1 1019.4 -
20/10:30pm 3.3 0.7 1.0 85 0.9 NNE 4 7 2 4 1019.4 1019.7 -
20/10:00pm 3.5 0.5 0.9 83 1.0 N 6 11 3 6 1019.7 1019.9 -
20/09:30pm 3.0 0.9 -0.5 78 1.3 CALM 0 0 0 0 1019.7 1019.9 -
20/09:00pm 2.9 0.8 -0.5 78 1.3 CALM 0 0 0 0 1020.2 1020.5 -
20/08:30pm 3.1 1.0 -0.7 76 1.5 CALM 0 0 0 0 1020.4 1020.7 -
20/08:00pm 3.4 1.4 -0.2 77 1.4 CALM 0 0 0 0 1020.4 1020.7 -
20/07:30pm 3.6 1.6 0.0 77 1.4 CALM 0 0 0 0 1020.1 1020.4 -
20/07:00pm 4.0 2.0 -0.2 74 1.6 CALM 0 0 0 0 1020.2 1020.5 -
20/06:30pm 4.0 2.0 -0.2 74 1.6 CALM 0 0 0 0 1020.1 1020.4 -
20/06:00pm 4.2 2.2 -0.4 72 1.8 CALM 0 0 0 0 1020.1 1020.4 -
20/05:30pm 4.6 2.6 -0.4 70 2.0 CALM 0 0 0 0 1020.2 1020.5 -
20/05:00pm 5.3 3.3 0.1 69 2.1 CALM 0 0 0 0 1020.6 1020.9 -
20/04:30pm 6.3 4.4 0.6 67 2.3 CALM 0 0 0 0 1020.9 1021.2 -
20/04:00pm 6.8 5.0 0.9 66 2.4 CALM 0 0 0 0 1020.9 1021.2 -
20/03:30pm 7.9 6.1 1.1 62 2.9 CALM 0 0 0 0 1021.0 1021.3 -
20/03:00pm 8.1 6.3 1.3 62 2.9 CALM 0 0 0 0 1021.2 1021.4 -
20/02:30pm 8.0 5.7 0.7 60 3.0 SSW 2 4 1 2 1021.5 1021.8 -
20/02:00pm 7.8 5.8 0.1 58 3.1 CALM 0 4 0 2 1021.7 1022.0 -
20/01:30pm 7.0 5.0 0.2 62 2.8 CALM 0 2 0 1 1022.0 1022.3 -
20/01:00pm 7.3 4.9 -0.6 57 3.2 S 2 6 1 3 1022.6 1023.0 -
20/12:30pm 7.1 5.1 -0.1 60 2.9 CALM 0 2 0 1 1023.2 1023.5 -
20/12:00pm 7.8 5.5 0.1 58 3.1 W 2 7 1 4 1023.8 1024.1 -
20/11:30am 6.6 3.8 -0.1 62 2.7 SW 4 7 2 4 1024.4 1024.8 -
20/11:00am 6.0 3.2 -0.7 62 2.6 SW 4 11 2 6 1024.6 1024.9 -
20/10:30am 6.9 4.6 0.6 64 2.6 SW 2 7 1 4 1024.7 1025.0 -
20/10:00am 6.0 3.2 -0.7 62 2.6 SW 4 9 2 5 1024.6 1024.9 -
20/09:30am 4.9 1.6 -0.9 66 2.2 SW 6 11 3 6 1024.8 1025.1 -
20/09:00am 4.6 1.3 -1.0 67 2.1 SW 6 11 3 6 1024.8 1025.1 -
20/08:30am 4.1 0.9 -0.7 71 1.9 SW 6 9 3 5 1024.9 1025.2 -
20/08:00am 3.0 -0.3 -1.4 73 1.6 SW 6 11 3 6 1024.8 1025.1 -
20/07:30am 3.0 -0.5 -1.4 73 1.6 SW 7 13 4 7 1024.7 1025.0 -
20/07:00am 2.3 -1.2 -1.1 78 1.3 SW 7 11 4 6 1024.3 1024.7 -
20/06:30am 1.7 -0.8 -0.7 84 0.9 SW 2 7 1 4 1024.0 1024.4 -
20/06:00am 1.7 -0.7 -0.2 87 0.7 SW 2 6 1 3 1023.7 1024.0 -
20/05:30am 2.2 -1.1 -0.9 80 1.2 SW 6 13 3 7 1023.4 1023.7 -
20/05:00am 2.6 -0.8 -0.5 80 1.2 SW 7 13 4 7 1023.4 1023.7 -
20/04:30am 2.9 -0.9 -0.4 79 1.3 SW 9 24 5 13 1023.4 1023.7 -
20/04:00am 3.0 -1.1 -0.3 79 1.3 SW 11 17 6 9 1023.3 1023.6 -
20/03:30am 3.1 -0.6 0.0 80 1.2 SW 9 13 5 7 1023.4 1023.7 -
20/03:00am 3.3 -0.8 -0.2 78 1.3 SW 11 19 6 10 1023.3 1023.6 -
20/02:30am 3.3 -0.8 0.0 79 1.3 SW 11 26 6 14 1023.4 1023.7 -
20/02:00am 3.1 -0.6 0.0 80 1.2 SW 9 17 5 9 1023.4 1023.7 -
20/01:30am 2.8 -0.8 0.4 84 0.9 SW 9 17 5 9 1023.4 1023.7 -
20/01:00am 2.7 -1.0 0.1 83 1.0 SW 9 19 5 10 1023.4 1023.7 -
20/12:30am 2.5 -1.2 -0.3 82 1.1 SW 9 15 5 8 1023.5 1023.8 -
20/12:00am 2.7 -1.0 -0.2 81 1.1 SW 9 17 5 9 1023.4 1023.7 -
 
Date/Time
EST
Temp
°C
App
Temp
°C
Dew
Point
°C
Rel
Hum
%
Delta-T
°C
Wind Press
QNH
hPa
Press
MSL
hPa
Rain since
9am
mm
Dir  Spd
km/h
Gust
km/h
Spd
kts
Gust
kts
19/11:30pm 2.8 -0.5 -0.1 81 1.1 SW 7 13 4 7 1023.5 1023.8 -
19/11:00pm 2.8 -0.4 -0.3 80 1.2 SW 6 9 3 5 1023.5 1023.8 -
19/10:30pm 2.8 -0.6 -0.5 79 1.3 SW 7 15 4 8 1023.6 1023.9 -
19/10:00pm 2.9 -0.4 -0.2 80 1.2 SSW 7 15 4 8 1023.5 1023.8 -
19/09:30pm 3.3 -0.9 -0.9 74 1.6 SW 11 17 6 9 1023.4 1023.7 -
19/09:00pm 3.2 -0.7 -1.2 73 1.7 SW 9 24 5 13 1023.6 1023.9 -
19/08:30pm 3.3 -0.1 -0.9 74 1.6 SW 7 15 4 8 1023.9 1024.3 -
19/08:00pm 3.3 -0.5 -0.7 75 1.5 SW 9 15 5 8 1023.8 1024.1 -
19/07:30pm 3.5 0.1 -0.7 74 1.6 SSW 7 15 4 8 1023.7 1024.0 -

Other Formats:

Comma delimited format used in spreadsheet applications
http://www.bom.gov.au/fwo/IDV60801/IDV60801.94914.axf

JavaScript Object Notation format (JSON) in row-major order
http://www.bom.gov.au/fwo/IDV60801/IDV60801.94914.json